createdAt,value
2019-03-18T00:01:03.595Z,69.16
2019-03-18T00:03:33.156Z,69.58
2019-03-18T00:06:02.638Z,69.87
2019-03-18T00:08:32.050Z,70.30
2019-03-18T00:11:01.411Z,70.67
2019-03-18T00:13:30.901Z,71.01
2019-03-18T00:16:00.416Z,71.56
2019-03-18T00:18:29.791Z,71.22
2019-03-18T00:20:59.179Z,71.11
2019-03-18T00:23:28.711Z,71.48
2019-03-18T00:25:58.190Z,71.85
2019-03-18T00:28:27.570Z,71.82
2019-03-18T00:30:56.995Z,71.96
2019-03-18T00:33:26.472Z,72.00
2019-03-18T00:35:55.933Z,72.56
2019-03-18T00:38:25.535Z,73.04
2019-03-18T00:40:55.009Z,73.17
2019-03-18T00:43:24.574Z,73.05
2019-03-18T00:45:54.027Z,73.19
2019-03-18T00:48:23.514Z,73.39
2019-03-18T00:50:52.991Z,73.69
2019-03-18T00:53:22.386Z,73.98
2019-03-18T00:55:51.954Z,74.19
2019-03-18T00:58:21.532Z,74.30
2019-03-18T01:00:51.061Z,75.15
2019-03-18T01:03:20.463Z,74.49
2019-03-18T01:05:49.898Z,74.55
2019-03-18T01:08:19.376Z,74.74
2019-03-18T01:10:48.886Z,75.05
2019-03-18T01:13:18.307Z,75.22
2019-03-18T01:15:47.683Z,75.37
2019-03-18T01:18:17.171Z,75.28
2019-03-18T01:20:46.599Z,75.31
2019-03-18T01:23:16.123Z,75.38
2019-03-18T01:25:45.636Z,75.55
2019-03-18T01:28:15.026Z,75.43
2019-03-18T01:30:44.434Z,75.66
2019-03-18T01:33:13.964Z,75.50
2019-03-18T01:35:43.463Z,74.98
2019-03-18T01:38:12.850Z,74.79
2019-03-18T01:40:42.274Z,74.42
2019-03-18T01:43:11.764Z,74.41
2019-03-18T01:45:41.347Z,74.86
2019-03-18T01:48:10.749Z,75.16
2019-03-18T01:50:40.129Z,75.79
2019-03-18T01:53:09.633Z,76.38
2019-03-18T01:55:39.164Z,76.64
2019-03-18T01:58:08.549Z,76.76
2019-03-18T02:00:39.117Z,77.18
2019-03-18T02:03:08.572Z,77.21
2019-03-18T02:05:37.962Z,77.42
2019-03-18T02:08:07.457Z,77.06
2019-03-18T02:10:36.971Z,77.51
2019-03-18T02:13:06.351Z,76.61
2019-03-18T02:15:35.747Z,75.63
2019-03-18T02:18:05.440Z,75.60
2019-03-18T02:20:34.916Z,75.71
2019-03-18T02:23:04.298Z,76.36
2019-03-18T02:25:33.697Z,77.02
2019-03-18T02:28:03.398Z,77.52
2019-03-18T02:30:32.883Z,78.37
2019-03-18T02:33:02.246Z,78.36
2019-03-18T02:35:31.735Z,78.63
2019-03-18T02:38:01.228Z,78.63
2019-03-18T02:40:30.609Z,77.66
2019-03-18T02:43:00.130Z,77.60
2019-03-18T02:45:29.613Z,77.90
2019-03-18T03:01:22.250Z,78.09
2019-03-18T03:03:51.676Z,78.52
2019-03-18T03:06:21.233Z,78.46
2019-03-18T03:08:50.839Z,78.65
2019-03-18T03:11:20.254Z,79.01
2019-03-18T03:13:49.681Z,78.35
2019-03-18T03:16:26.208Z,76.95
2019-03-18T03:18:50.616Z,76.55
2019-03-18T03:21:20.039Z,77.07
2019-03-18T03:23:49.445Z,77.03
2019-03-18T03:26:18.989Z,77.42
2019-03-18T03:28:48.492Z,77.06
2019-03-18T03:31:17.882Z,77.18
2019-03-18T03:33:47.319Z,77.37
2019-03-18T03:36:16.784Z,77.05
2019-03-18T03:38:46.303Z,77.03
2019-03-18T03:41:17.860Z,77.20
2019-03-18T03:43:46.824Z,77.19
2019-03-18T03:46:16.308Z,77.28
2019-03-18T03:48:45.828Z,77.69
2019-03-18T03:51:15.225Z,77.98
2019-03-18T03:53:44.612Z,78.40
2019-03-18T03:56:14.251Z,78.19
2019-03-18T03:58:43.848Z,78.80
2019-03-18T04:01:13.246Z,79.12
2019-03-18T04:03:42.832Z,78.67
2019-03-18T04:06:12.417Z,79.21
2019-03-18T04:08:41.898Z,79.84
2019-03-18T04:11:11.426Z,80.11
2019-03-18T04:13:40.932Z,80.00
2019-03-18T04:16:10.344Z,80.16
2019-03-18T04:18:39.771Z,80.34
2019-03-18T04:21:09.264Z,80.41
2019-03-18T04:23:38.763Z,80.59
2019-03-18T04:26:09.277Z,80.79
2019-03-18T04:28:38.681Z,81.16
2019-03-18T04:31:08.167Z,80.72
2019-03-18T04:33:39.485Z,80.18
2019-03-18T04:36:09.017Z,79.64
2019-03-18T04:38:38.414Z,79.42
2019-03-18T04:41:08.186Z,79.43
2019-03-18T04:43:37.682Z,79.19
2019-03-18T04:46:07.355Z,78.70
2019-03-18T04:48:36.774Z,78.60
2019-03-18T04:51:06.271Z,78.75
2019-03-18T04:53:35.648Z,78.96
2019-03-18T04:56:07.252Z,78.96
2019-03-18T04:58:36.728Z,78.67
2019-03-18T05:01:06.487Z,78.69
2019-03-18T05:03:36.091Z,79.00
2019-03-18T05:06:05.598Z,78.99
2019-03-18T05:08:35.098Z,78.66
2019-03-18T05:11:04.528Z,78.28
2019-03-18T05:13:33.990Z,77.93
2019-03-18T05:16:03.497Z,77.97
2019-03-18T05:18:33.184Z,77.85
2019-03-18T05:21:02.580Z,77.76
2019-03-18T05:23:31.965Z,78.20
2019-03-18T05:26:01.510Z,78.25
2019-03-18T05:28:31.019Z,78.24
2019-03-18T05:31:01.422Z,78.19
2019-03-18T05:33:30.941Z,78.05
2019-03-18T05:36:00.320Z,77.93
2019-03-18T05:38:29.758Z,77.58
2019-03-18T05:40:59.306Z,77.20
2019-03-18T05:43:28.828Z,76.79
2019-03-18T05:45:58.223Z,76.56
2019-03-18T05:48:29.128Z,76.73
2019-03-18T05:50:58.611Z,76.93
2019-03-18T05:53:28.028Z,76.97
2019-03-18T05:55:57.627Z,76.40
2019-03-18T05:58:27.013Z,76.09
2019-03-18T06:00:56.506Z,75.89
2019-03-18T06:03:26.285Z,76.13
2019-03-18T06:05:55.869Z,75.35
2019-03-18T06:08:25.240Z,75.12
2019-03-18T06:10:54.776Z,74.26
2019-03-18T06:13:24.149Z,74.08
2019-03-18T06:15:53.658Z,73.59
2019-03-18T06:18:23.347Z,73.34
2019-03-18T06:20:52.746Z,72.85
2019-03-18T06:23:22.134Z,72.28
2019-03-18T06:25:51.824Z,72.05
2019-03-18T06:28:21.340Z,71.73
2019-03-18T06:30:50.745Z,71.66
2019-03-18T06:33:20.220Z,71.44
2019-03-18T06:35:49.711Z,71.54
2019-03-18T06:38:19.193Z,71.34
2019-03-18T06:40:48.769Z,70.59
2019-03-18T06:43:18.161Z,70.20
2019-03-18T06:45:47.628Z,69.49
2019-03-18T06:48:17.296Z,69.14
2019-03-18T06:50:46.663Z,68.76
2019-03-18T06:53:16.130Z,68.74
2019-03-18T06:55:45.548Z,67.89
2019-03-18T06:58:14.909Z,67.56
2019-03-18T07:00:44.374Z,66.99
2019-03-18T07:03:14.037Z,66.17
2019-03-18T07:05:46.124Z,65.37
2019-03-18T07:08:14.516Z,64.85
2019-03-18T07:10:44.016Z,64.46
2019-03-18T07:13:13.481Z,64.40
2019-03-18T07:15:42.857Z,63.72
2019-03-18T07:18:18.034Z,63.03
2019-03-18T07:20:43.631Z,62.85
2019-03-18T07:23:13.101Z,62.46
2019-03-18T07:25:42.524Z,62.00
2019-03-18T07:28:11.890Z,61.47
2019-03-18T07:30:41.356Z,61.54
2019-03-18T07:33:10.955Z,61.42
2019-03-18T07:35:40.415Z,61.01
2019-03-18T07:38:09.877Z,61.01
2019-03-18T07:40:39.275Z,60.49
2019-03-18T07:43:08.703Z,60.03
2019-03-18T07:45:38.165Z,60.72
2019-03-18T07:48:07.680Z,60.00
2019-03-18T07:50:37.054Z,60.49
2019-03-18T07:53:06.420Z,60.48
2019-03-18T07:55:35.921Z,60.26
2019-03-18T07:58:05.395Z,58.87
2019-03-18T08:00:34.766Z,59.17
2019-03-18T08:03:04.256Z,59.10
2019-03-18T08:05:33.718Z,59.43
2019-03-18T08:08:03.203Z,57.70
2019-03-18T08:10:32.620Z,57.83
2019-03-18T08:13:02.822Z,57.67
2019-03-18T08:15:32.187Z,57.33
2019-03-18T08:18:02.537Z,57.33
2019-03-18T08:20:32.010Z,57.71
2019-03-18T08:23:01.488Z,57.26
2019-03-18T08:25:31.016Z,57.09
2019-03-18T08:28:00.380Z,57.31
2019-03-18T08:30:29.854Z,57.07
2019-03-18T08:32:59.367Z,56.78
2019-03-18T08:35:28.819Z,56.99
2019-03-18T08:37:58.207Z,56.93
2019-03-18T08:40:27.868Z,56.46
2019-03-18T08:42:57.346Z,55.56
2019-03-18T08:45:26.714Z,55.26
2019-03-18T08:47:56.138Z,55.71
2019-03-18T08:50:25.608Z,54.30
2019-03-18T08:52:55.090Z,53.77
2019-03-18T08:55:24.656Z,53.39
2019-03-18T08:57:54.018Z,53.18
2019-03-18T09:00:56.660Z,53.33
2019-03-18T09:03:26.139Z,53.16
2019-03-18T09:05:55.551Z,52.35
2019-03-18T09:08:26.550Z,52.52
2019-03-18T09:10:56.175Z,51.34
2019-03-18T09:13:26.683Z,51.02
2019-03-18T09:15:56.022Z,50.56
2019-03-18T09:18:25.414Z,50.10
2019-03-18T09:20:54.919Z,50.27
2019-03-18T09:23:24.379Z,49.36
2019-03-18T09:25:53.746Z,48.88
2019-03-18T09:28:23.144Z,49.18
2019-03-18T09:30:52.614Z,48.74
2019-03-18T09:33:21.996Z,48.18
2019-03-18T09:35:51.496Z,48.16
2019-03-18T09:38:20.991Z,48.17
2019-03-18T09:40:50.515Z,47.64
2019-03-18T09:43:20.002Z,47.33
2019-03-18T09:45:49.487Z,45.35
2019-03-18T09:48:18.972Z,47.11
2019-03-18T09:50:48.414Z,46.44
2019-03-18T09:53:17.801Z,45.59
2019-03-18T09:55:47.276Z,46.42
2019-03-18T09:58:16.787Z,46.08
2019-03-18T10:00:46.157Z,44.98
2019-03-18T10:03:15.627Z,44.73
2019-03-18T10:05:45.285Z,44.13
2019-03-18T10:08:14.760Z,43.26
2019-03-18T10:10:44.136Z,43.69
2019-03-18T10:13:13.644Z,43.70
2019-03-18T10:15:43.032Z,43.70
2019-03-18T10:18:12.414Z,43.60
2019-03-18T10:20:41.923Z,43.60
2019-03-18T10:23:11.410Z,42.76
2019-03-18T10:25:40.774Z,42.84
2019-03-18T10:28:10.182Z,43.48
2019-03-18T10:30:39.632Z,43.54
2019-03-18T10:33:09.101Z,43.49
2019-03-18T10:35:38.501Z,43.77
2019-03-18T10:38:07.863Z,44.15
2019-03-18T10:40:37.317Z,43.96
2019-03-18T10:43:06.826Z,42.57
2019-03-18T10:45:36.188Z,42.95
2019-03-18T10:48:05.563Z,42.71
2019-03-18T10:50:35.109Z,43.05
2019-03-18T10:53:04.477Z,42.64
2019-03-18T10:55:33.950Z,43.40
2019-03-18T10:58:03.452Z,44.40
2019-03-18T11:00:32.832Z,44.86
2019-03-18T11:03:02.187Z,45.09
2019-03-18T11:05:31.861Z,45.06
2019-03-18T11:08:01.394Z,44.82
2019-03-18T11:10:30.749Z,44.51
2019-03-18T11:13:00.165Z,44.83
2019-03-18T11:15:29.627Z,43.73
2019-03-18T11:17:59.121Z,42.35
2019-03-18T11:20:28.536Z,42.51
2019-03-18T11:22:57.903Z,42.56
2019-03-18T11:25:27.384Z,43.09
2019-03-18T11:27:57.043Z,43.10
2019-03-18T11:30:26.409Z,42.42
2019-03-18T11:32:55.883Z,42.70
2019-03-18T11:35:25.434Z,43.00
2019-03-18T11:37:54.815Z,43.03
2019-03-18T11:40:24.290Z,43.06
2019-03-18T11:42:54.057Z,42.93
2019-03-18T11:45:23.420Z,42.75
2019-03-18T11:47:52.811Z,42.62
2019-03-18T11:50:22.495Z,42.51
2019-03-18T11:52:51.980Z,42.25
2019-03-18T11:55:21.422Z,42.57
2019-03-18T11:57:50.986Z,42.08
2019-03-18T12:00:20.569Z,42.02
2019-03-18T12:02:50.034Z,42.25
2019-03-18T12:05:19.543Z,42.68
2019-03-18T12:07:48.919Z,41.99
2019-03-18T12:10:18.487Z,41.05
2019-03-18T12:12:47.892Z,41.19
2019-03-18T12:15:17.470Z,40.91
2019-03-18T12:17:47.035Z,41.55
2019-03-18T12:20:24.223Z,41.26
2019-03-18T12:22:47.858Z,41.03
2019-03-18T12:25:17.327Z,40.50
2019-03-18T12:27:46.844Z,40.04
2019-03-18T12:30:17.742Z,40.14
2019-03-18T12:32:47.215Z,40.08
2019-03-18T12:35:16.784Z,40.21
2019-03-18T12:37:46.358Z,40.19
2019-03-18T12:40:15.760Z,40.15
2019-03-18T12:42:45.577Z,39.98
2019-03-18T12:45:15.178Z,39.86
2019-03-18T12:47:44.748Z,39.90
2019-03-18T12:50:15.551Z,39.75
2019-03-18T12:52:45.102Z,39.92
2019-03-18T12:55:14.468Z,40.04
2019-03-18T12:57:43.913Z,40.25
2019-03-18T13:00:16.719Z,40.36
2019-03-18T13:02:46.278Z,40.69
2019-03-18T13:05:15.888Z,40.68
2019-03-18T13:07:45.283Z,40.49
2019-03-18T13:10:15.486Z,40.42
2019-03-18T13:12:45.103Z,40.31
2019-03-18T13:15:15.589Z,40.13
2019-03-18T13:17:45.109Z,39.98
2019-03-18T13:20:15.069Z,39.67
2019-03-18T13:22:44.601Z,39.74
2019-03-18T13:25:14.230Z,39.92
2019-03-18T13:27:43.640Z,39.89
2019-03-18T13:30:15.488Z,39.93
2019-03-18T13:32:44.971Z,39.45
2019-03-18T13:35:14.875Z,39.22
2019-03-18T13:37:44.462Z,38.85
2019-03-18T13:40:15.327Z,39.13
2019-03-18T13:42:44.940Z,39.32
2019-03-18T13:45:15.237Z,38.96
2019-03-18T13:47:44.720Z,38.70
2019-03-18T13:50:15.392Z,38.29
2019-03-18T13:52:44.762Z,38.16
2019-03-18T13:55:14.224Z,37.77
2019-03-18T13:57:43.730Z,37.36
2019-03-18T14:00:14.383Z,37.19
2019-03-18T14:02:43.938Z,36.71
2019-03-18T14:05:13.675Z,36.58
2019-03-18T14:07:43.238Z,36.48
2019-03-18T14:10:13.752Z,36.59
2019-03-18T14:12:43.311Z,36.27
2019-03-18T14:15:14.602Z,36.67
2019-03-18T14:17:44.074Z,36.29
2019-03-18T14:20:14.561Z,35.89
2019-03-18T14:22:44.130Z,36.11
2019-03-18T14:25:13.808Z,35.72
2019-03-18T14:27:43.636Z,35.32
2019-03-18T14:30:15.098Z,35.49
2019-03-18T14:32:44.597Z,35.35
2019-03-18T14:35:14.476Z,35.55
2019-03-18T14:37:44.020Z,35.31
2019-03-18T14:40:14.061Z,35.28
2019-03-18T14:42:43.658Z,35.38
2019-03-18T14:45:15.477Z,34.50
2019-03-18T14:47:44.991Z,34.88
2019-03-18T14:50:14.732Z,34.96
2019-03-18T14:52:44.320Z,32.36
2019-03-18T14:55:13.742Z,31.15
2019-03-18T14:57:43.187Z,30.81
2019-03-18T15:00:15.996Z,30.66
2019-03-18T15:02:45.467Z,30.98
2019-03-18T15:05:15.141Z,31.18
2019-03-18T15:07:44.593Z,30.82
2019-03-18T15:10:14.411Z,30.99
2019-03-18T15:12:43.950Z,31.17
2019-03-18T15:15:14.793Z,31.06
2019-03-18T15:17:44.188Z,31.10
2019-03-18T15:20:13.909Z,31.55
2019-03-18T15:22:43.392Z,31.52
2019-03-18T15:25:17.172Z,31.51
2019-03-18T15:27:46.597Z,31.35
2019-03-18T15:30:17.648Z,31.56
2019-03-18T15:32:47.046Z,31.50
2019-03-18T15:35:16.649Z,31.35
2019-03-18T15:37:46.142Z,31.33
2019-03-18T15:40:16.356Z,31.53
2019-03-18T15:42:45.941Z,31.87
2019-03-18T15:45:16.393Z,32.36
2019-03-18T15:47:45.877Z,32.62
2019-03-18T15:50:16.786Z,32.91
2019-03-18T15:52:46.164Z,33.61
2019-03-18T15:55:15.750Z,33.93
2019-03-18T15:57:45.520Z,35.25
2019-03-18T16:00:16.581Z,35.59
2019-03-18T16:02:45.964Z,35.93
2019-03-18T16:05:15.529Z,36.28
2019-03-18T16:07:45.016Z,36.70
2019-03-18T16:10:14.953Z,36.94
2019-03-18T16:12:44.669Z,37.33
2019-03-18T16:15:14.353Z,37.61
2019-03-18T16:17:43.748Z,38.33
2019-03-18T16:20:14.206Z,38.42
2019-03-18T16:22:43.645Z,39.13
2019-03-18T16:25:13.208Z,39.70
2019-03-18T16:27:42.821Z,40.26
2019-03-18T16:30:13.643Z,40.62
2019-03-18T16:32:43.107Z,41.18
2019-03-18T16:35:15.699Z,41.63
2019-03-18T16:37:44.154Z,42.40
2019-03-18T16:40:13.842Z,42.62
2019-03-18T16:42:43.396Z,43.25
2019-03-18T16:45:13.677Z,43.92
2019-03-18T16:47:43.344Z,44.10
2019-03-18T16:50:14.397Z,44.21
2019-03-18T16:52:43.902Z,44.63
2019-03-18T16:55:13.690Z,45.20
2019-03-18T16:57:43.213Z,45.23
2019-03-18T17:00:14.880Z,45.52
2019-03-18T17:02:44.670Z,45.87
2019-03-18T17:05:14.333Z,46.32
2019-03-18T17:07:43.807Z,46.74
2019-03-18T17:10:13.469Z,47.05
2019-03-18T17:12:42.947Z,47.28
2019-03-18T17:15:12.527Z,47.84
2019-03-18T17:17:42.193Z,48.35
2019-03-18T17:20:12.336Z,48.16
2019-03-18T17:22:48.945Z,48.52
2019-03-18T17:25:15.054Z,48.45
2019-03-18T17:27:44.514Z,48.60
2019-03-18T17:30:16.029Z,48.58
2019-03-18T17:32:45.587Z,48.58
2019-03-18T17:35:16.146Z,49.10
2019-03-18T17:37:45.522Z,49.46
2019-03-18T17:40:15.130Z,49.28
2019-03-18T17:42:44.755Z,49.06
2019-03-18T17:45:14.448Z,49.39
2019-03-18T17:47:43.972Z,49.73
2019-03-18T17:50:15.653Z,50.04
2019-03-18T17:52:45.158Z,50.33
2019-03-18T17:55:14.584Z,50.81
2019-03-18T17:57:44.013Z,50.90
2019-03-18T18:00:17.867Z,51.38
2019-03-18T18:02:47.402Z,51.78
2019-03-18T18:05:16.780Z,51.97
2019-03-18T18:07:46.172Z,52.60
2019-03-18T18:10:15.713Z,52.54
2019-03-18T18:12:45.116Z,52.94
2019-03-18T18:15:14.613Z,53.52
2019-03-18T18:17:44.292Z,53.98
2019-03-18T18:20:13.700Z,54.18
2019-03-18T18:22:43.121Z,54.54
2019-03-18T18:25:12.674Z,55.00
2019-03-18T18:27:42.692Z,55.12
2019-03-18T18:30:12.327Z,55.30
2019-03-18T18:32:41.877Z,55.71
2019-03-18T18:35:11.472Z,56.05
2019-03-18T18:37:41.059Z,56.81
2019-03-18T18:40:11.450Z,56.64
2019-03-18T18:42:40.853Z,56.94
2019-03-18T18:45:11.103Z,57.17
2019-03-18T18:47:40.692Z,57.48
2019-03-18T18:50:10.388Z,57.54
2019-03-18T18:52:39.911Z,58.78
2019-03-18T18:55:09.775Z,59.02
2019-03-18T18:57:39.145Z,59.25
2019-03-18T19:00:10.970Z,59.68
2019-03-18T19:02:40.653Z,59.75
2019-03-18T19:05:10.713Z,60.07
2019-03-18T19:07:40.098Z,60.57
2019-03-18T19:10:10.747Z,61.23
2019-03-18T19:12:40.464Z,61.54
2019-03-18T19:15:12.686Z,61.98
2019-03-18T19:17:42.139Z,62.39
2019-03-18T19:20:11.895Z,62.96
2019-03-18T19:22:41.398Z,63.41
2019-03-18T19:25:12.176Z,63.96
2019-03-18T19:27:42.264Z,63.96
2019-03-18T19:30:18.738Z,64.38
2019-03-18T19:32:48.200Z,64.53
2019-03-18T19:35:19.277Z,65.24
2019-03-18T19:37:50.222Z,65.18
2019-03-18T19:40:19.733Z,65.92
2019-03-18T19:42:49.199Z,66.24
2019-03-18T19:45:18.619Z,65.92
2019-03-18T19:47:48.008Z,66.37
2019-03-18T19:50:18.335Z,66.61
2019-03-18T19:52:47.832Z,67.09
2019-03-18T19:55:17.205Z,67.58
2019-03-18T19:57:46.581Z,67.56
2019-03-18T20:00:17.899Z,68.17
2019-03-18T20:02:47.405Z,67.79
2019-03-18T20:05:18.923Z,67.90
2019-03-18T20:07:47.942Z,68.12
2019-03-18T20:10:17.481Z,68.11
2019-03-18T20:12:46.851Z,68.73
2019-03-18T20:15:16.417Z,69.04
2019-03-18T20:17:46.035Z,69.73
2019-03-18T20:20:15.431Z,69.84
2019-03-18T20:22:44.789Z,70.85
2019-03-18T20:25:14.397Z,70.80
2019-03-18T20:27:43.827Z,71.13
2019-03-18T20:30:15.110Z,72.02
2019-03-18T20:32:44.611Z,72.61
2019-03-18T20:35:14.579Z,72.42
2019-03-18T20:37:44.156Z,72.93
2019-03-18T20:40:14.047Z,72.84
2019-03-18T20:42:43.664Z,73.33
2019-03-18T20:45:14.702Z,74.23
2019-03-18T20:47:44.405Z,74.71
2019-03-18T20:50:15.189Z,74.54
2019-03-18T20:52:44.772Z,75.49
2019-03-18T20:55:14.357Z,76.05
2019-03-18T20:57:43.751Z,75.82
2019-03-18T21:00:14.706Z,76.87
2019-03-18T21:02:44.244Z,76.96
2019-03-18T21:05:13.605Z,77.36
2019-03-18T21:07:42.983Z,78.54
2019-03-18T21:10:12.749Z,78.95
2019-03-18T21:12:42.217Z,79.11
2019-03-18T21:15:11.613Z,79.58
2019-03-18T21:17:41.033Z,80.36
2019-03-18T21:20:12.743Z,80.39
2019-03-18T21:22:42.219Z,80.68
2019-03-18T21:25:11.878Z,81.17
2019-03-18T21:27:41.229Z,82.32
2019-03-18T21:30:11.947Z,82.30
2019-03-18T21:32:41.655Z,83.05
2019-03-18T21:35:11.392Z,83.19
2019-03-18T21:37:40.867Z,83.32
2019-03-18T21:40:11.515Z,83.25
2019-03-18T21:42:40.902Z,83.68
2019-03-18T21:45:12.679Z,83.75
2019-03-18T21:47:42.214Z,85.54
2019-03-18T21:50:12.820Z,85.11
2019-03-18T21:52:42.229Z,85.16
2019-03-18T21:55:12.037Z,85.45
2019-03-18T21:57:41.500Z,85.28
2019-03-18T22:00:15.516Z,85.39
2019-03-18T22:02:44.919Z,85.89
2019-03-18T22:05:14.609Z,86.54
2019-03-18T22:07:44.179Z,86.82
2019-03-18T22:10:13.763Z,86.94
2019-03-18T22:12:43.253Z,87.63
2019-03-18T22:15:12.898Z,88.48
2019-03-18T22:17:42.544Z,88.81
2019-03-18T22:20:14.242Z,89.38
2019-03-18T22:22:43.733Z,89.05
2019-03-18T22:25:13.460Z,89.02
2019-03-18T22:27:42.936Z,89.86
2019-03-18T22:30:12.703Z,90.07
2019-03-18T22:32:42.110Z,90.04
2019-03-18T22:35:11.706Z,90.77
2019-03-18T22:37:41.178Z,91.34
2019-03-18T22:40:11.093Z,92.02
2019-03-18T22:42:40.480Z,92.54
2019-03-18T22:45:10.488Z,93.67
2019-03-18T22:47:39.984Z,93.46
2019-03-18T22:50:09.383Z,93.43
2019-03-18T22:52:39.235Z,93.91
2019-03-18T22:55:09.173Z,94.63
2019-03-18T22:57:38.902Z,94.06
2019-03-18T23:00:15.818Z,94.10
2019-03-18T23:02:45.308Z,93.45
2019-03-18T23:05:20.770Z,93.67
2019-03-18T23:07:50.356Z,94.68
2019-03-18T23:10:19.948Z,95.78
2019-03-18T23:12:49.531Z,95.42
2019-03-18T23:15:18.936Z,94.54
2019-03-18T23:17:48.344Z,95.37
2019-03-18T23:20:17.977Z,95.96
2019-03-18T23:22:47.457Z,95.97
2019-03-18T23:25:16.820Z,95.82
2019-03-18T23:27:46.233Z,95.92
2019-03-18T23:30:15.784Z,96.43
2019-03-18T23:32:45.147Z,96.88
2019-03-18T23:35:14.757Z,97.18
2019-03-18T23:37:44.240Z,97.99
2019-03-18T23:40:13.645Z,97.40
2019-03-18T23:42:43.228Z,97.46
2019-03-18T23:45:13.148Z,97.79
2019-03-18T23:47:42.645Z,98.38
2019-03-18T23:50:12.203Z,98.60
2019-03-18T23:52:41.605Z,98.09
2019-03-18T23:55:19.201Z,97.42
2019-03-18T23:57:44.120Z,98.02
